sensor_id;sensor_type;location;lat;lon;timestamp;temperature;humidity
47521;DHT22;32291;52.010;4.446;2023-11-18T00:00:21;6.60;99.90
47521;DHT22;32291;52.010;4.446;2023-11-18T00:01:23;6.70;99.90
47521;DHT22;32291;52.010;4.446;2023-11-18T00:02:25;6.50;99.90
47521;DHT22;32291;52.010;4.446;2023-11-18T00:03:32;6.50;99.90
47521;DHT22;32291;52.010;4.446;2023-11-18T00:04:34;6.50;99.90
47521;DHT22;32291;52.010;4.446;2023-11-18T00:05:41;6.50;99.90
47521;DHT22;32291;52.010;4.446;2023-11-18T00:06:44;6.40;99.90
47521;DHT22;32291;52.010;4.446;2023-11-18T00:07:46;6.40;99.90
47521;DHT22;32291;52.010;4.446;2023-11-18T00:08:53;6.40;99.90
47521;DHT22;32291;52.010;4.446;2023-11-18T00:10:00;6.40;99.90
47521;DHT22;32291;52.010;4.446;2023-11-18T00:11:07;6.40;99.90
47521;DHT22;32291;52.010;4.446;2023-11-18T00:12:10;6.40;99.90
47521;DHT22;32291;52.010;4.446;2023-11-18T00:13:17;6.40;99.90
47521;DHT22;32291;52.010;4.446;2023-11-18T00:14:23;6.30;99.90
47521;DHT22;32291;52.010;4.446;2023-11-18T00:15:25;6.30;99.90
47521;DHT22;32291;52.010;4.446;2023-11-18T00:16:27;6.30;99.90
47521;DHT22;32291;52.010;4.446;2023-11-18T00:17:36;6.30;99.90
47521;DHT22;32291;52.010;4.446;2023-11-18T00:18:43;6.30;99.90
47521;DHT22;32291;52.010;4.446;2023-11-18T00:19:51;6.30;99.90
47521;DHT22;32291;52.010;4.446;2023-11-18T00:20:58;6.20;99.90
47521;DHT22;32291;52.010;4.446;2023-11-18T00:22:01;6.20;99.90
47521;DHT22;32291;52.010;4.446;2023-11-18T00:23:08;6.20;99.90
47521;DHT22;32291;52.010;4.446;2023-11-18T00:24:15;6.10;99.90
47521;DHT22;32291;52.010;4.446;2023-11-18T00:25:17;6.10;99.90
47521;DHT22;32291;52.010;4.446;2023-11-18T00:26:24;6.10;99.90
47521;DHT22;32291;52.010;4.446;2023-11-18T00:27:32;6.10;99.90
47521;DHT22;32291;52.010;4.446;2023-11-18T00:28:34;6.00;99.90
47521;DHT22;32291;52.010;4.446;2023-11-18T00:29:41;6.00;99.90
47521;DHT22;32291;52.010;4.446;2023-11-18T00:30:50;6.10;99.90
47521;DHT22;32291;52.010;4.446;2023-11-18T00:31:57;5.90;99.90
47521;DHT22;32291;52.010;4.446;2023-11-18T00:33:04;5.90;99.90
47521;DHT22;32291;52.010;4.446;2023-11-18T00:34:06;6.00;99.90
47521;DHT22;32291;52.010;4.446;2023-11-18T00:35:13;5.90;99.90
47521;DHT22;32291;52.010;4.446;2023-11-18T00:36:21;6.00;99.90
47521;DHT22;32291;52.010;4.446;2023-11-18T00:37:27;6.00;99.90
47521;DHT22;32291;52.010;4.446;2023-11-18T00:38:34;5.90;99.90
47521;DHT22;32291;52.010;4.446;2023-11-18T00:39:36;6.00;99.90
47521;DHT22;32291;52.010;4.446;2023-11-18T00:40:38;6.10;99.90
47521;DHT22;32291;52.010;4.446;2023-11-18T00:41:46;6.10;99.90
47521;DHT22;32291;52.010;4.446;2023-11-18T00:42:53;6.10;99.90
47521;DHT22;32291;52.010;4.446;2023-11-18T00:44:00;6.10;99.90
47521;DHT22;32291;52.010;4.446;2023-11-18T00:45:07;6.10;99.90
47521;DHT22;32291;52.010;4.446;2023-11-18T00:46:14;6.10;99.90
47521;DHT22;32291;52.010;4.446;2023-11-18T00:47:21;6.10;99.90
47521;DHT22;32291;52.010;4.446;2023-11-18T00:48:29;6.20;99.90
47521;DHT22;32291;52.010;4.446;2023-11-18T00:49:31;6.20;99.90
47521;DHT22;32291;52.010;4.446;2023-11-18T00:50:40;6.30;99.90
47521;DHT22;32291;52.010;4.446;2023-11-18T00:51:42;6.30;99.90
47521;DHT22;32291;52.010;4.446;2023-11-18T00:52:49;6.30;99.90
47521;DHT22;32291;52.010;4.446;2023-11-18T00:53:56;6.30;99.90
47521;DHT22;32291;52.010;4.446;2023-11-18T00:54:58;6.40;99.90
47521;DHT22;32291;52.010;4.446;2023-11-18T00:56:05;6.40;99.90
47521;DHT22;32291;52.010;4.446;2023-11-18T00:57:16;6.40;99.90
47521;DHT22;32291;52.010;4.446;2023-11-18T00:58:18;6.40;99.90
47521;DHT22;32291;52.010;4.446;2023-11-18T00:59:25;6.50;99.90
47521;DHT22;32291;52.010;4.446;2023-11-18T01:00:33;6.40;99.90
47521;DHT22;32291;52.010;4.446;2023-11-18T01:01:35;6.40;99.90
47521;DHT22;32291;52.010;4.446;2023-11-18T01:02:43;6.50;99.90
47521;DHT22;32291;52.010;4.446;2023-11-18T01:03:50;6.50;99.90
47521;DHT22;32291;52.010;4.446;2023-11-18T01:04:57;6.50;99.90
47521;DHT22;32291;52.010;4.446;2023-11-18T01:06:04;6.50;99.90
47521;DHT22;32291;52.010;4.446;2023-11-18T01:07:12;6.50;99.90
47521;DHT22;32291;52.010;4.446;2023-11-18T01:08:14;6.60;99.90
47521;DHT22;32291;52.010;4.446;2023-11-18T01:09:16;6.60;99.90
47521;DHT22;32291;52.010;4.446;2023-11-18T01:10:23;6.60;99.90
47521;DHT22;32291;52.010;4.446;2023-11-18T01:11:30;6.60;99.90
47521;DHT22;32291;52.010;4.446;2023-11-18T01:12:33;6.60;99.90
47521;DHT22;32291;52.010;4.446;2023-11-18T01:13:40;6.70;99.90
47521;DHT22;32291;52.010;4.446;2023-11-18T01:14:46;6.70;99.90
47521;DHT22;32291;52.010;4.446;2023-11-18T01:15:53;6.70;99.90
47521;DHT22;32291;52.010;4.446;2023-11-18T01:16:55;6.80;99.90
47521;DHT22;32291;52.010;4.446;2023-11-18T01:18:03;6.70;99.90
47521;DHT22;32291;52.010;4.446;2023-11-18T01:19:10;6.70;99.90
47521;DHT22;32291;52.010;4.446;2023-11-18T01:20:12;6.70;99.90
47521;DHT22;32291;52.010;4.446;2023-11-18T01:21:20;6.70;99.90
47521;DHT22;32291;52.010;4.446;2023-11-18T01:22:28;6.80;99.90
47521;DHT22;32291;52.010;4.446;2023-11-18T01:23:36;6.70;99.90
47521;DHT22;32291;52.010;4.446;2023-11-18T01:24:39;6.70;99.90
47521;DHT22;32291;52.010;4.446;2023-11-18T01:25:41;6.70;99.90
47521;DHT22;32291;52.010;4.446;2023-11-18T01:26:44;6.80;99.90
47521;DHT22;32291;52.010;4.446;2023-11-18T01:27:52;6.80;99.90
47521;DHT22;32291;52.010;4.446;2023-11-18T01:28:54;6.70;99.90
47521;DHT22;32291;52.010;4.446;2023-11-18T01:30:02;6.80;99.90
47521;DHT22;32291;52.010;4.446;2023-11-18T01:31:06;6.70;99.90
47521;DHT22;32291;52.010;4.446;2023-11-18T01:32:16;6.70;99.90
47521;DHT22;32291;52.010;4.446;2023-11-18T01:33:23;6.70;99.90
47521;DHT22;32291;52.010;4.446;2023-11-18T01:34:26;6.80;99.90
47521;DHT22;32291;52.010;4.446;2023-11-18T01:35:34;6.90;99.90
47521;DHT22;32291;52.010;4.446;2023-11-18T01:36:41;6.70;99.90
47521;DHT22;32291;52.010;4.446;2023-11-18T01:37:50;6.80;99.90
47521;DHT22;32291;52.010;4.446;2023-11-18T01:38:52;6.80;99.90
47521;DHT22;32291;52.010;4.446;2023-11-18T01:40:01;6.80;99.90
47521;DHT22;32291;52.010;4.446;2023-11-18T01:41:11;6.80;99.90
47521;DHT22;32291;52.010;4.446;2023-11-18T01:42:18;6.80;99.90
47521;DHT22;32291;52.010;4.446;2023-11-18T01:43:20;6.80;99.90
47521;DHT22;32291;52.010;4.446;2023-11-18T01:44:29;6.80;99.90
47521;DHT22;32291;52.010;4.446;2023-11-18T01:45:32;6.90;99.90
47521;DHT22;32291;52.010;4.446;2023-11-18T01:46:41;6.80;99.90
47521;DHT22;32291;52.010;4.446;2023-11-18T01:47:47;6.90;99.90
47521;DHT22;32291;52.010;4.446;2023-11-18T01:48:55;6.80;99.90
47521;DHT22;32291;52.010;4.446;2023-11-18T01:49:59;6.80;99.90
47521;DHT22;32291;52.010;4.446;2023-11-18T01:51:04;6.80;99.90
47521;DHT22;32291;52.010;4.446;2023-11-18T01:52:09;6.80;99.90
47521;DHT22;32291;52.010;4.446;2023-11-18T01:53:16;6.80;99.90
47521;DHT22;32291;52.010;4.446;2023-11-18T01:54:24;6.90;99.90
47521;DHT22;32291;52.010;4.446;2023-11-18T01:55:26;6.80;99.90
47521;DHT22;32291;52.010;4.446;2023-11-18T01:56:33;6.80;99.90
47521;DHT22;32291;52.010;4.446;2023-11-18T01:57:40;6.80;99.90
47521;DHT22;32291;52.010;4.446;2023-11-18T01:58:45;6.70;99.90
47521;DHT22;32291;52.010;4.446;2023-11-18T01:59:48;6.70;99.90
47521;DHT22;32291;52.010;4.446;2023-11-18T02:00:55;6.80;99.90
47521;DHT22;32291;52.010;4.446;2023-11-18T02:02:02;6.80;99.90
47521;DHT22;32291;52.010;4.446;2023-11-18T02:03:09;6.70;99.90
47521;DHT22;32291;52.010;4.446;2023-11-18T02:04:17;6.70;99.90
47521;DHT22;32291;52.010;4.446;2023-11-18T02:05:25;6.80;99.90
47521;DHT22;32291;52.010;4.446;2023-11-18T02:06:28;6.80;99.90
47521;DHT22;32291;52.010;4.446;2023-11-18T02:07:35;6.80;99.90
47521;DHT22;32291;52.010;4.446;2023-11-18T02:08:38;6.70;99.90
47521;DHT22;32291;52.010;4.446;2023-11-18T02:09:43;6.80;99.90
47521;DHT22;32291;52.010;4.446;2023-11-18T02:10:55;6.80;99.90
47521;DHT22;32291;52.010;4.446;2023-11-18T02:13:46;6.80;99.90
47521;DHT22;32291;52.010;4.446;2023-11-18T02:14:50;6.80;99.90
47521;DHT22;32291;52.010;4.446;2023-11-18T02:15:53;6.80;99.90
47521;DHT22;32291;52.010;4.446;2023-11-18T02:16:59;6.80;99.90
47521;DHT22;32291;52.010;4.446;2023-11-18T02:18:06;6.80;99.90
47521;DHT22;32291;52.010;4.446;2023-11-18T02:19:20;6.70;99.90
47521;DHT22;32291;52.010;4.446;2023-11-18T02:20:26;6.70;99.90
47521;DHT22;32291;52.010;4.446;2023-11-18T02:21:30;6.60;99.90
47521;DHT22;32291;52.010;4.446;2023-11-18T02:22:42;6.70;99.90
47521;DHT22;32291;52.010;4.446;2023-11-18T02:23:48;6.70;99.90
47521;DHT22;32291;52.010;4.446;2023-11-18T02:24:54;6.70;99.90
47521;DHT22;32291;52.010;4.446;2023-11-18T02:26:01;6.70;99.90
47521;DHT22;32291;52.010;4.446;2023-11-18T02:27:08;6.70;99.90
47521;DHT22;32291;52.010;4.446;2023-11-18T02:28:13;6.70;99.90
47521;DHT22;32291;52.010;4.446;2023-11-18T02:29:20;6.70;99.90
47521;DHT22;32291;52.010;4.446;2023-11-18T02:30:28;6.70;99.90
47521;DHT22;32291;52.010;4.446;2023-11-18T02:31:34;6.80;99.90
47521;DHT22;32291;52.010;4.446;2023-11-18T02:32:51;6.80;99.90
47521;DHT22;32291;52.010;4.446;2023-11-18T02:34:26;6.80;99.90
47521;DHT22;32291;52.010;4.446;2023-11-18T02:36:05;6.80;99.90
47521;DHT22;32291;52.010;4.446;2023-11-18T02:37:12;6.80;99.90
47521;DHT22;32291;52.010;4.446;2023-11-18T02:38:24;6.80;99.90
47521;DHT22;32291;52.010;4.446;2023-11-18T02:39:40;6.80;99.90
47521;DHT22;32291;52.010;4.446;2023-11-18T02:40:46;6.80;99.90
47521;DHT22;32291;52.010;4.446;2023-11-18T02:41:52;6.90;99.90
47521;DHT22;32291;52.010;4.446;2023-11-18T02:43:04;6.80;99.90
47521;DHT22;32291;52.010;4.446;2023-11-18T02:44:13;6.90;99.90
47521;DHT22;32291;52.010;4.446;2023-11-18T02:45:24;6.90;99.90
47521;DHT22;32291;52.010;4.446;2023-11-18T02:46:27;6.90;99.90
47521;DHT22;32291;52.010;4.446;2023-11-18T02:47:34;6.90;99.90
47521;DHT22;32291;52.010;4.446;2023-11-18T02:48:41;6.90;99.90
47521;DHT22;32291;52.010;4.446;2023-11-18T02:49:54;6.90;99.90
47521;DHT22;32291;52.010;4.446;2023-11-18T02:51:03;6.90;99.90
47521;DHT22;32291;52.010;4.446;2023-11-18T02:52:10;6.90;99.90
47521;DHT22;32291;52.010;4.446;2023-11-18T02:53:17;7.00;99.90
47521;DHT22;32291;52.010;4.446;2023-11-18T02:54:25;6.90;99.90
47521;DHT22;32291;52.010;4.446;2023-11-18T02:55:27;7.00;99.90
47521;DHT22;32291;52.010;4.446;2023-11-18T02:56:29;6.90;99.90
47521;DHT22;32291;52.010;4.446;2023-11-18T02:57:37;6.90;99.90
47521;DHT22;32291;52.010;4.446;2023-11-18T02:58:39;6.90;99.90
47521;DHT22;32291;52.010;4.446;2023-11-18T02:59:41;6.90;99.90
47521;DHT22;32291;52.010;4.446;2023-11-18T03:00:48;6.90;99.90
47521;DHT22;32291;52.010;4.446;2023-11-18T03:01:55;7.00;99.90
47521;DHT22;32291;52.010;4.446;2023-11-18T03:02:57;7.00;99.90
47521;DHT22;32291;52.010;4.446;2023-11-18T03:04:04;7.00;99.90
47521;DHT22;32291;52.010;4.446;2023-11-18T03:05:07;7.00;99.90
47521;DHT22;32291;52.010;4.446;2023-11-18T03:06:18;6.90;99.90
47521;DHT22;32291;52.010;4.446;2023-11-18T03:07:25;7.00;99.90
47521;DHT22;32291;52.010;4.446;2023-11-18T03:08:35;6.90;99.90
47521;DHT22;32291;52.010;4.446;2023-11-18T03:09:42;6.90;99.90
47521;DHT22;32291;52.010;4.446;2023-11-18T03:10:44;6.90;99.90
47521;DHT22;32291;52.010;4.446;2023-11-18T03:11:46;6.90;99.90
47521;DHT22;32291;52.010;4.446;2023-11-18T03:12:52;6.90;99.90
47521;DHT22;32291;52.010;4.446;2023-11-18T03:14:00;6.90;99.90
47521;DHT22;32291;52.010;4.446;2023-11-18T03:15:03;7.00;99.90
47521;DHT22;32291;52.010;4.446;2023-11-18T03:16:12;6.90;99.90
47521;DHT22;32291;52.010;4.446;2023-11-18T03:17:19;6.90;99.90
47521;DHT22;32291;52.010;4.446;2023-11-18T03:18:21;6.90;99.90
47521;DHT22;32291;52.010;4.446;2023-11-18T03:19:23;6.90;99.90
47521;DHT22;32291;52.010;4.446;2023-11-18T03:20:33;6.90;99.90
47521;DHT22;32291;52.010;4.446;2023-11-18T03:21:35;6.90;99.90
47521;DHT22;32291;52.010;4.446;2023-11-18T03:22:38;6.90;99.90
47521;DHT22;32291;52.010;4.446;2023-11-18T03:23:40;6.90;99.90
47521;DHT22;32291;52.010;4.446;2023-11-18T03:24:43;6.90;99.90
47521;DHT22;32291;52.010;4.446;2023-11-18T03:25:50;7.00;99.90
47521;DHT22;32291;52.010;4.446;2023-11-18T03:26:58;6.90;99.90
47521;DHT22;32291;52.010;4.446;2023-11-18T03:28:05;6.90;99.90
47521;DHT22;32291;52.010;4.446;2023-11-18T03:29:12;6.90;99.90
47521;DHT22;32291;52.010;4.446;2023-11-18T03:30:20;6.90;99.90
47521;DHT22;32291;52.010;4.446;2023-11-18T03:31:22;6.90;99.90
47521;DHT22;32291;52.010;4.446;2023-11-18T03:32:29;6.90;99.90
47521;DHT22;32291;52.010;4.446;2023-11-18T03:33:33;6.90;99.90
47521;DHT22;32291;52.010;4.446;2023-11-18T03:34:35;6.90;99.90
47521;DHT22;32291;52.010;4.446;2023-11-18T03:35:37;7.00;99.90
47521;DHT22;32291;52.010;4.446;2023-11-18T03:36:47;7.00;99.90
47521;DHT22;32291;52.010;4.446;2023-11-18T03:37:54;6.90;99.90
47521;DHT22;32291;52.010;4.446;2023-11-18T03:39:01;6.90;99.90
47521;DHT22;32291;52.010;4.446;2023-11-18T03:40:04;6.90;99.90
47521;DHT22;32291;52.010;4.446;2023-11-18T03:41:12;7.00;99.90
47521;DHT22;32291;52.010;4.446;2023-11-18T03:42:19;7.00;99.90
47521;DHT22;32291;52.010;4.446;2023-11-18T03:43:26;7.00;99.90
47521;DHT22;32291;52.010;4.446;2023-11-18T03:44:34;7.00;99.90
47521;DHT22;32291;52.010;4.446;2023-11-18T03:45:36;6.90;99.90
47521;DHT22;32291;52.010;4.446;2023-11-18T03:46:45;6.90;99.90
47521;DHT22;32291;52.010;4.446;2023-11-18T03:47:47;7.00;99.90
47521;DHT22;32291;52.010;4.446;2023-11-18T03:48:56;7.10;99.90
47521;DHT22;32291;52.010;4.446;2023-11-18T03:50:03;7.00;99.90
47521;DHT22;32291;52.010;4.446;2023-11-18T03:51:05;6.90;99.90
47521;DHT22;32291;52.010;4.446;2023-11-18T03:52:07;6.90;99.90
47521;DHT22;32291;52.010;4.446;2023-11-18T03:53:14;7.00;99.90
47521;DHT22;32291;52.010;4.446;2023-11-18T03:54:21;7.00;99.90
47521;DHT22;32291;52.010;4.446;2023-11-18T03:55:23;7.00;99.90
47521;DHT22;32291;52.010;4.446;2023-11-18T03:56:30;7.00;99.90
47521;DHT22;32291;52.010;4.446;2023-11-18T03:57:37;7.00;99.90
47521;DHT22;32291;52.010;4.446;2023-11-18T03:58:44;7.00;99.90
47521;DHT22;32291;52.010;4.446;2023-11-18T03:59:46;7.00;99.90
47521;DHT22;32291;52.010;4.446;2023-11-18T04:00:52;7.10;99.90
47521;DHT22;32291;52.010;4.446;2023-11-18T04:02:00;7.00;99.90
47521;DHT22;32291;52.010;4.446;2023-11-18T04:03:07;7.00;99.90
47521;DHT22;32291;52.010;4.446;2023-11-18T04:04:13;7.10;99.90
47521;DHT22;32291;52.010;4.446;2023-11-18T04:05:16;7.00;99.90
47521;DHT22;32291;52.010;4.446;2023-11-18T04:06:18;7.00;99.90
47521;DHT22;32291;52.010;4.446;2023-11-18T04:07:23;7.00;99.90
47521;DHT22;32291;52.010;4.446;2023-11-18T04:08:29;7.00;99.90
47521;DHT22;32291;52.010;4.446;2023-11-18T04:09:36;7.10;99.90
47521;DHT22;32291;52.010;4.446;2023-11-18T04:10:43;7.10;99.90
47521;DHT22;32291;52.010;4.446;2023-11-18T04:11:45;7.00;99.90
47521;DHT22;32291;52.010;4.446;2023-11-18T04:12:52;7.00;99.90
47521;DHT22;32291;52.010;4.446;2023-11-18T04:13:54;7.00;99.90
47521;DHT22;32291;52.010;4.446;2023-11-18T04:15:01;7.00;99.90
47521;DHT22;32291;52.010;4.446;2023-11-18T04:16:14;7.00;99.90
47521;DHT22;32291;52.010;4.446;2023-11-18T04:17:22;7.10;99.90
47521;DHT22;32291;52.010;4.446;2023-11-18T04:18:28;7.10;99.90
47521;DHT22;32291;52.010;4.446;2023-11-18T04:19:35;7.10;99.90
47521;DHT22;32291;52.010;4.446;2023-11-18T04:20:38;7.10;99.90
47521;DHT22;32291;52.010;4.446;2023-11-18T04:21:47;7.10;99.90
47521;DHT22;32291;52.010;4.446;2023-11-18T04:22:50;7.10;99.90
47521;DHT22;32291;52.010;4.446;2023-11-18T04:23:52;7.10;99.90
47521;DHT22;32291;52.010;4.446;2023-11-18T04:24:59;7.10;99.90
47521;DHT22;32291;52.010;4.446;2023-11-18T04:26:07;7.10;99.90
47521;DHT22;32291;52.010;4.446;2023-11-18T04:27:15;7.10;99.90
47521;DHT22;32291;52.010;4.446;2023-11-18T04:28:22;7.20;99.90
47521;DHT22;32291;52.010;4.446;2023-11-18T04:29:24;7.10;99.90
47521;DHT22;32291;52.010;4.446;2023-11-18T04:30:30;7.10;99.90
47521;DHT22;32291;52.010;4.446;2023-11-18T04:31:37;7.10;99.90
47521;DHT22;32291;52.010;4.446;2023-11-18T04:32:44;7.10;99.90
47521;DHT22;32291;52.010;4.446;2023-11-18T04:33:51;7.20;99.90
47521;DHT22;32291;52.010;4.446;2023-11-18T04:34:53;7.10;99.90
47521;DHT22;32291;52.010;4.446;2023-11-18T04:36:00;7.20;99.90
47521;DHT22;32291;52.010;4.446;2023-11-18T04:37:08;7.10;99.90
47521;DHT22;32291;52.010;4.446;2023-11-18T04:38:15;7.10;99.90
47521;DHT22;32291;52.010;4.446;2023-11-18T04:39:17;7.20;99.90
47521;DHT22;32291;52.010;4.446;2023-11-18T04:40:23;7.20;99.90
47521;DHT22;32291;52.010;4.446;2023-11-18T04:41:30;7.20;99.90
47521;DHT22;32291;52.010;4.446;2023-11-18T04:42:33;7.20;99.90
47521;DHT22;32291;52.010;4.446;2023-11-18T04:43:35;7.10;99.90
47521;DHT22;32291;52.010;4.446;2023-11-18T04:44:37;7.10;99.90
47521;DHT22;32291;52.010;4.446;2023-11-18T04:45:45;7.10;99.90
47521;DHT22;32291;52.010;4.446;2023-11-18T04:46:52;7.10;99.90
47521;DHT22;32291;52.010;4.446;2023-11-18T04:47:54;7.10;99.90
47521;DHT22;32291;52.010;4.446;2023-11-18T04:49:01;7.10;99.90
47521;DHT22;32291;52.010;4.446;2023-11-18T04:50:04;7.10;99.90
47521;DHT22;32291;52.010;4.446;2023-11-18T04:51:06;7.10;99.90
47521;DHT22;32291;52.010;4.446;2023-11-18T04:52:08;7.10;99.90
47521;DHT22;32291;52.010;4.446;2023-11-18T04:53:15;7.20;99.90
47521;DHT22;32291;52.010;4.446;2023-11-18T04:54:22;7.20;99.90
47521;DHT22;32291;52.010;4.446;2023-11-18T04:55:29;7.20;99.90
47521;DHT22;32291;52.010;4.446;2023-11-18T04:56:36;7.20;99.90
47521;DHT22;32291;52.010;4.446;2023-11-18T04:57:38;7.30;99.90
47521;DHT22;32291;52.010;4.446;2023-11-18T04:58:46;7.40;99.90
47521;DHT22;32291;52.010;4.446;2023-11-18T04:59:49;7.30;99.90
47521;DHT22;32291;52.010;4.446;2023-11-18T05:00:55;7.20;99.90
47521;DHT22;32291;52.010;4.446;2023-11-18T05:02:03;7.30;99.90
47521;DHT22;32291;52.010;4.446;2023-11-18T05:03:09;7.20;99.90
47521;DHT22;32291;52.010;4.446;2023-11-18T05:04:16;7.30;99.90
47521;DHT22;32291;52.010;4.446;2023-11-18T05:05:23;7.20;99.90
47521;DHT22;32291;52.010;4.446;2023-11-18T05:06:25;7.20;99.90
47521;DHT22;32291;52.010;4.446;2023-11-18T05:07:33;7.20;99.90
47521;DHT22;32291;52.010;4.446;2023-11-18T05:08:41;7.30;99.90
47521;DHT22;32291;52.010;4.446;2023-11-18T05:09:43;7.20;99.90
47521;DHT22;32291;52.010;4.446;2023-11-18T05:10:50;7.20;99.90
47521;DHT22;32291;52.010;4.446;2023-11-18T05:11:52;7.20;99.90
47521;DHT22;32291;52.010;4.446;2023-11-18T05:12:59;7.20;99.90
47521;DHT22;32291;52.010;4.446;2023-11-18T05:14:02;7.30;99.90
47521;DHT22;32291;52.010;4.446;2023-11-18T05:15:06;7.20;99.90
47521;DHT22;32291;52.010;4.446;2023-11-18T05:16:14;7.20;99.90
47521;DHT22;32291;52.010;4.446;2023-11-18T05:17:22;7.20;99.90
47521;DHT22;32291;52.010;4.446;2023-11-18T05:18:24;7.20;99.90
47521;DHT22;32291;52.010;4.446;2023-11-18T05:19:35;7.20;99.90
47521;DHT22;32291;52.010;4.446;2023-11-18T05:20:43;7.20;99.90
47521;DHT22;32291;52.010;4.446;2023-11-18T05:21:51;7.20;99.90
47521;DHT22;32291;52.010;4.446;2023-11-18T05:22:53;7.30;99.90
47521;DHT22;32291;52.010;4.446;2023-11-18T05:24:00;7.30;99.90
47521;DHT22;32291;52.010;4.446;2023-11-18T05:25:07;7.20;99.90
47521;DHT22;32291;52.010;4.446;2023-11-18T05:26:14;7.30;99.90
47521;DHT22;32291;52.010;4.446;2023-11-18T05:27:17;7.30;99.90
47521;DHT22;32291;52.010;4.446;2023-11-18T05:28:19;7.30;99.90
47521;DHT22;32291;52.010;4.446;2023-11-18T05:29:26;7.30;99.90
47521;DHT22;32291;52.010;4.446;2023-11-18T05:30:38;7.30;99.90
47521;DHT22;32291;52.010;4.446;2023-11-18T05:31:51;7.30;99.90
47521;DHT22;32291;52.010;4.446;2023-11-18T05:32:53;7.40;99.90
47521;DHT22;32291;52.010;4.446;2023-11-18T05:33:59;7.30;99.90
47521;DHT22;32291;52.010;4.446;2023-11-18T05:35:07;7.30;99.90
47521;DHT22;32291;52.010;4.446;2023-11-18T05:36:17;7.30;99.90
47521;DHT22;32291;52.010;4.446;2023-11-18T05:37:28;7.30;99.90
47521;DHT22;32291;52.010;4.446;2023-11-18T05:38:31;7.30;99.90
47521;DHT22;32291;52.010;4.446;2023-11-18T05:39:41;7.30;99.90
47521;DHT22;32291;52.010;4.446;2023-11-18T05:40:45;7.30;99.90
47521;DHT22;32291;52.010;4.446;2023-11-18T05:42:07;7.30;99.90
47521;DHT22;32291;52.010;4.446;2023-11-18T05:43:16;7.30;99.90
47521;DHT22;32291;52.010;4.446;2023-11-18T05:44:21;7.30;99.90
47521;DHT22;32291;52.010;4.446;2023-11-18T05:45:36;7.30;99.90
47521;DHT22;32291;52.010;4.446;2023-11-18T05:46:57;7.30;99.90
47521;DHT22;32291;52.010;4.446;2023-11-18T05:48:04;7.20;99.90
47521;DHT22;32291;52.010;4.446;2023-11-18T05:49:11;7.30;99.90
47521;DHT22;32291;52.010;4.446;2023-11-18T05:50:15;7.30;99.90
47521;DHT22;32291;52.010;4.446;2023-11-18T05:51:23;7.30;99.90
47521;DHT22;32291;52.010;4.446;2023-11-18T05:52:33;7.40;99.90
47521;DHT22;32291;52.010;4.446;2023-11-18T05:53:42;7.30;99.90
47521;DHT22;32291;52.010;4.446;2023-11-18T05:54:47;7.30;99.90
47521;DHT22;32291;52.010;4.446;2023-11-18T05:55:54;7.30;99.90
47521;DHT22;32291;52.010;4.446;2023-11-18T05:57:01;7.30;99.90
47521;DHT22;32291;52.010;4.446;2023-11-18T05:58:03;7.30;99.90
47521;DHT22;32291;52.010;4.446;2023-11-18T05:59:05;7.30;99.90
47521;DHT22;32291;52.010;4.446;2023-11-18T06:00:07;7.20;99.90
47521;DHT22;32291;52.010;4.446;2023-11-18T06:01:11;7.30;99.90
47521;DHT22;32291;52.010;4.446;2023-11-18T06:02:14;7.30;99.90
47521;DHT22;32291;52.010;4.446;2023-11-18T06:03:24;7.30;99.90
47521;DHT22;32291;52.010;4.446;2023-11-18T06:04:31;7.30;99.90
47521;DHT22;32291;52.010;4.446;2023-11-18T06:05:33;7.30;99.90
47521;DHT22;32291;52.010;4.446;2023-11-18T06:06:36;7.20;99.90
47521;DHT22;32291;52.010;4.446;2023-11-18T06:07:43;7.30;99.90
47521;DHT22;32291;52.010;4.446;2023-11-18T06:08:50;7.30;99.90
47521;DHT22;32291;52.010;4.446;2023-11-18T06:09:53;7.30;99.90
47521;DHT22;32291;52.010;4.446;2023-11-18T06:11:00;7.30;99.90
47521;DHT22;32291;52.010;4.446;2023-11-18T06:12:07;7.30;99.90
47521;DHT22;32291;52.010;4.446;2023-11-18T06:13:15;7.30;99.90
47521;DHT22;32291;52.010;4.446;2023-11-18T06:14:23;7.30;99.90
47521;DHT22;32291;52.010;4.446;2023-11-18T06:15:25;7.30;99.90
47521;DHT22;32291;52.010;4.446;2023-11-18T06:16:32;7.30;99.90
47521;DHT22;32291;52.010;4.446;2023-11-18T06:17:38;7.30;99.90
47521;DHT22;32291;52.010;4.446;2023-11-18T06:18:44;7.30;99.90
47521;DHT22;32291;52.010;4.446;2023-11-18T06:19:51;7.40;99.90
47521;DHT22;32291;52.010;4.446;2023-11-18T06:20:53;7.40;99.90
47521;DHT22;32291;52.010;4.446;2023-11-18T06:21:55;7.30;99.90
47521;DHT22;32291;52.010;4.446;2023-11-18T06:23:05;7.30;99.90
47521;DHT22;32291;52.010;4.446;2023-11-18T06:24:08;7.30;99.90
47521;DHT22;32291;52.010;4.446;2023-11-18T06:25:12;7.30;99.90
47521;DHT22;32291;52.010;4.446;2023-11-18T06:26:15;7.30;99.90
47521;DHT22;32291;52.010;4.446;2023-11-18T06:27:22;7.30;99.90
47521;DHT22;32291;52.010;4.446;2023-11-18T06:28:27;7.30;99.90
47521;DHT22;32291;52.010;4.446;2023-11-18T06:29:35;7.30;99.90
47521;DHT22;32291;52.010;4.446;2023-11-18T06:30:37;7.30;99.90
47521;DHT22;32291;52.010;4.446;2023-11-18T06:31:40;7.30;99.90
47521;DHT22;32291;52.010;4.446;2023-11-18T06:32:42;7.30;99.90
47521;DHT22;32291;52.010;4.446;2023-11-18T06:33:46;7.30;99.90
47521;DHT22;32291;52.010;4.446;2023-11-18T06:34:54;7.40;99.90
47521;DHT22;32291;52.010;4.446;2023-11-18T06:35:56;7.30;99.90
47521;DHT22;32291;52.010;4.446;2023-11-18T06:37:03;7.30;99.90
47521;DHT22;32291;52.010;4.446;2023-11-18T06:38:12;7.40;99.90
47521;DHT22;32291;52.010;4.446;2023-11-18T06:39:14;7.40;99.90
47521;DHT22;32291;52.010;4.446;2023-11-18T06:40:22;7.40;99.90
47521;DHT22;32291;52.010;4.446;2023-11-18T06:41:28;7.40;99.90
47521;DHT22;32291;52.010;4.446;2023-11-18T06:42:44;7.40;99.90
47521;DHT22;32291;52.010;4.446;2023-11-18T06:43:55;7.40;99.90
47521;DHT22;32291;52.010;4.446;2023-11-18T06:44:57;7.30;99.90
47521;DHT22;32291;52.010;4.446;2023-11-18T06:46:04;7.40;99.90
47521;DHT22;32291;52.010;4.446;2023-11-18T06:47:11;7.40;99.90
47521;DHT22;32291;52.010;4.446;2023-11-18T06:48:18;7.40;99.90
47521;DHT22;32291;52.010;4.446;2023-11-18T06:49:26;7.40;99.90
47521;DHT22;32291;52.010;4.446;2023-11-18T06:50:36;7.40;99.90
47521;DHT22;32291;52.010;4.446;2023-11-18T06:51:38;7.40;99.90
47521;DHT22;32291;52.010;4.446;2023-11-18T06:52:40;7.40;99.90
47521;DHT22;32291;52.010;4.446;2023-11-18T06:53:51;7.50;99.90
47521;DHT22;32291;52.010;4.446;2023-11-18T06:55:01;7.40;99.90
47521;DHT22;32291;52.010;4.446;2023-11-18T06:56:04;7.40;99.90
47521;DHT22;32291;52.010;4.446;2023-11-18T06:57:11;7.40;99.90
47521;DHT22;32291;52.010;4.446;2023-11-18T06:58:14;7.30;99.90
47521;DHT22;32291;52.010;4.446;2023-11-18T06:59:20;7.30;99.90
47521;DHT22;32291;52.010;4.446;2023-11-18T07:00:27;7.40;99.90
47521;DHT22;32291;52.010;4.446;2023-11-18T07:01:35;7.30;99.90
47521;DHT22;32291;52.010;4.446;2023-11-18T07:02:44;7.30;99.90
47521;DHT22;32291;52.010;4.446;2023-11-18T07:03:51;7.30;99.90
47521;DHT22;32291;52.010;4.446;2023-11-18T07:04:59;7.30;99.90
47521;DHT22;32291;52.010;4.446;2023-11-18T07:06:06;7.40;99.90